Time;durP1;ratioP1;P1;durP2;ratioP2;P2;SDS_P1;SDS_P2;PMS_P1;PMS_P2;Temp;Humidity;BMP_temperature;BMP_pressure;BME280_temperature;BME280_humidity;BME280_pressure;Samples;Min_cycle;Max_cycle;Signal;HPM_P1;HPM_P2
2022/01/24 00:01:05;;;;;;;34.58;19.45;;;;;;;4.38;79.23;103430.94;5050651;28;20033;-79
2022/01/24 00:03:31;;;;;;;33.47;18.45;;;;;;;4.36;77.86;103437.72;5046600;28;20074;-79
2022/01/24 00:05:56;;;;;;;35.58;19.75;;;;;;;4.35;77.59;103435.97;5047842;28;21467;-79
2022/01/24 00:08:22;;;;;;;30.45;18.00;;;;;;;4.34;76.84;103431.63;5051105;28;20024;-79
2022/01/24 00:10:49;;;;;;;31.98;18.00;;;;;;;4.36;78.87;103431.69;5047878;28;20036;-79
2022/01/24 00:16:58;;;;;;;33.45;18.27;;;;;;;4.35;78.15;103430.81;5048057;28;20055;-79
2022/01/24 00:26:55;;;;;;;33.97;18.73;;;;;;;4.35;79.18;103430.81;5046780;28;20036;-79
2022/01/24 00:29:22;;;;;;;32.15;18.65;;;;;;;4.35;78.80;103430.81;5047504;28;20025;-79
2022/01/24 00:31:48;;;;;;;33.78;18.15;;;;;;;4.35;78.27;103428.25;5047383;28;20074;-79
2022/01/24 00:34:15;;;;;;;31.05;17.95;;;;;;;4.36;77.31;103429.09;5048072;28;20112;-79
2022/01/24 00:36:41;;;;;;;32.33;18.45;;;;;;;4.34;77.73;103418.75;5046896;28;20025;-79
2022/01/24 00:39:07;;;;;;;30.92;17.92;;;;;;;4.35;78.21;103427.38;5048944;28;20032;-79
2022/01/24 00:41:44;;;;;;;34.20;18.70;;;;;;;4.34;78.28;103416.16;5047895;28;20021;-79
2022/01/24 00:46:53;;;;;;;32.50;17.60;;;;;;;4.32;78.35;103407.50;5049764;28;20036;-79
2022/01/24 00:57:03;;;;;;;28.83;17.13;;;;;;;4.28;76.37;103409.88;5051159;28;20112;-79
2022/01/24 00:59:29;;;;;;;28.83;16.95;;;;;;;4.27;77.04;103416.72;5050891;28;20025;-79
2022/01/24 01:01:55;;;;;;;27.70;17.00;;;;;;;4.27;77.17;103415.84;5050376;28;20025;-79
2022/01/24 01:04:25;;;;;;;25.08;15.48;;;;;;;4.25;77.07;103408.06;5051450;28;20056;-79
2022/01/24 01:06:51;;;;;;;27.38;15.45;;;;;;;4.25;77.11;103398.63;5049967;28;20025;-79
2022/01/24 01:20:16;;;;;;;26.90;16.08;;;;;;;4.27;77.93;103403.81;5052667;28;20048;-79
2022/01/24 01:22:41;;;;;;;26.77;15.57;;;;;;;4.27;77.09;103406.41;5048640;28;20409;-79
2022/01/24 01:25:07;;;;;;;27.95;16.10;;;;;;;4.26;77.12;103402.09;5051637;28;20027;-79
2022/01/24 01:27:38;;;;;;;27.33;15.65;;;;;;;4.26;76.76;103404.66;5049789;28;20118;-79
2022/01/24 01:30:15;;;;;;;25.73;15.73;;;;;;;4.26;77.45;103399.53;5049677;28;20021;-79
2022/01/24 01:35:51;;;;;;;26.47;15.33;;;;;;;4.27;77.40;103396.09;4998075;28;20097;-79
2022/01/24 01:38:50;;;;;;;25.88;15.15;;;;;;;4.28;77.55;103394.41;5049600;28;20027;-79
2022/01/24 01:52:39;;;;;;;25.77;15.23;;;;;;;4.25;76.65;103415.78;5048108;28;20110;-79
2022/01/24 01:55:14;;;;;;;23.85;14.32;;;;;;;4.25;77.60;103413.22;5051167;28;20467;-79
2022/01/24 01:57:39;;;;;;;27.30;14.70;;;;;;;4.24;76.72;103411.44;5050624;28;20032;-79
2022/01/24 02:00:06;;;;;;;25.05;15.23;;;;;;;4.24;77.21;103406.31;5050209;28;20025;-79
2022/01/24 02:02:32;;;;;;;25.37;15.60;;;;;;;4.24;76.50;103404.59;5049859;28;20059;-79
2022/01/24 02:04:57;;;;;;;24.50;14.90;;;;;;;4.25;76.88;103405.50;5048800;28;20116;-79
2022/01/24 02:07:22;;;;;;;22.85;14.32;;;;;;;4.24;77.23;103396.00;5050455;28;20063;-79
2022/01/24 02:09:48;;;;;;;22.37;14.20;;;;;;;4.24;77.21;103396.84;5050741;28;20380;-79
2022/01/24 02:12:17;;;;;;;24.50;14.97;;;;;;;4.25;77.27;103396.03;5049036;28;20328;-79
2022/01/24 02:14:49;;;;;;;24.45;14.52;;;;;;;4.24;77.55;103393.41;5048111;28;20115;-79
2022/01/24 02:17:22;;;;;;;27.80;14.50;;;;;;;4.22;75.37;103389.91;5048014;28;20059;-79
2022/01/24 02:20:10;;;;;;;23.23;14.60;;;;;;;4.21;75.71;103395.84;5048695;28;20041;-79
2022/01/24 02:22:46;;;;;;;22.17;14.33;;;;;;;4.19;75.91;103389.75;5048326;28;20095;-79
2022/01/24 02:25:27;;;;;;;20.38;13.38;;;;;;;4.19;75.56;103393.19;5048548;28;20031;-79
2022/01/24 02:28:00;;;;;;;21.98;13.75;;;;;;;4.17;74.24;103386.22;5050096;28;20102;-79
2022/01/24 02:33:11;;;;;;;21.48;12.93;;;;;;;4.14;74.23;103384.41;5049586;28;20345;-79
2022/01/24 02:35:37;;;;;;;21.38;13.70;;;;;;;4.13;74.75;103381.75;5048405;28;20025;-79
2022/01/24 02:38:09;;;;;;;21.85;13.30;;;;;;;4.13;74.04;103374.94;5047725;28;20013;-79
2022/01/24 02:40:35;;;;;;;18.80;12.18;;;;;;;4.12;74.47;103387.72;5049309;28;20182;-79
2022/01/24 02:46:06;;;;;;;19.02;11.93;;;;;;;4.10;75.17;103378.22;5049519;28;20056;-79
2022/01/24 02:48:31;;;;;;;18.73;11.35;;;;;;;4.12;75.84;103380.00;5047010;28;20111;-79
2022/01/24 02:53:43;;;;;;;20.08;11.73;;;;;;;4.13;75.71;103374.94;5049303;28;20051;-79
2022/01/24 02:56:09;;;;;;;20.08;12.13;;;;;;;4.14;75.66;103379.25;5050238;28;20020;-79
2022/01/24 02:58:35;;;;;;;17.65;11.15;;;;;;;4.14;75.79;103380.94;5047833;28;20108;-79
2022/01/24 03:01:06;;;;;;;20.38;11.55;;;;;;;4.14;76.51;103370.63;5048683;28;20550;-79
2022/01/24 03:03:31;;;;;;;17.50;11.10;;;;;;;4.15;76.39;103369.81;5048729;28;20526;-79
2022/01/24 03:05:56;;;;;;;17.58;11.02;;;;;;;4.12;75.00;103369.69;5048205;28;20025;-79
2022/01/24 03:08:22;;;;;;;19.92;11.98;;;;;;;4.11;75.33;103368.81;5049050;28;20492;-79
2022/01/24 03:10:48;;;;;;;20.35;12.38;;;;;;;4.12;75.73;103364.53;5049013;28;20017;-79
2022/01/24 03:15:53;;;;;;;19.65;12.45;;;;;;;4.12;75.98;103361.97;5046695;28;20059;-79
2022/01/24 03:18:18;;;;;;;19.83;12.13;;;;;;;4.11;75.36;103363.66;5048886;28;20045;-79
2022/01/24 03:20:44;;;;;;;20.52;11.90;;;;;;;4.11;75.05;103361.09;5048038;28;20386;-79
2022/01/24 03:23:14;;;;;;;19.23;12.10;;;;;;;4.08;74.66;103359.28;5047059;28;20460;-79
2022/01/24 03:25:40;;;;;;;19.13;11.38;;;;;;;4.09;75.78;103361.03;5046501;28;20074;-82
2022/01/24 03:28:06;;;;;;;19.05;11.88;;;;;;;4.09;76.71;103355.88;5048049;28;20036;-79
2022/01/24 03:30:32;;;;;;;21.77;11.98;;;;;;;4.11;76.84;103355.94;5048283;28;20104;-79
2022/01/24 03:32:58;;;;;;;18.90;11.80;;;;;;;4.10;75.58;103352.47;5048102;28;20128;-79
2022/01/24 03:35:24;;;;;;;19.05;12.55;;;;;;;4.12;76.16;103351.66;5048076;28;20033;-79
2022/01/24 03:37:50;;;;;;;20.45;12.18;;;;;;;4.12;75.50;103354.22;5047364;28;20056;-79
2022/01/24 03:40:15;;;;;;;18.25;12.10;;;;;;;4.12;75.94;103357.72;5047327;28;20108;-79
2022/01/24 03:42:40;;;;;;;18.40;11.43;;;;;;;4.10;75.97;103355.03;5047353;28;20294;-79
2022/01/24 03:45:09;;;;;;;19.45;12.10;;;;;;;4.09;75.49;103355.88;5046198;28;20021;-79
2022/01/24 03:50:05;;;;;;;19.27;12.13;;;;;;;4.06;74.77;103355.75;5047974;28;20535;-79
2022/01/24 03:52:30;;;;;;;20.60;11.77;;;;;;;4.08;75.53;103359.28;5048680;28;20024;-79
2022/01/24 03:54:57;;;;;;;20.90;12.23;;;;;;;4.08;75.34;103355.81;5047283;28;20036;-79
2022/01/24 03:57:23;;;;;;;20.90;12.63;;;;;;;4.07;75.72;103349.78;5047733;28;20024;-79
2022/01/24 03:59:49;;;;;;;21.70;11.98;;;;;;;4.08;76.15;103351.56;5046752;28;20123;-79
2022/01/24 04:02:15;;;;;;;20.87;12.27;;;;;;;4.08;75.76;103348.97;5045244;28;20365;-79
2022/01/24 04:04:41;;;;;;;20.40;12.27;;;;;;;4.08;75.67;103348.06;5046645;28;20429;-79
2022/01/24 04:07:06;;;;;;;20.60;12.52;;;;;;;4.08;76.24;103348.97;5048376;28;20480;-79
2022/01/24 04:09:33;;;;;;;20.00;12.43;;;;;;;4.08;76.68;103341.25;5048546;28;20025;-79
2022/01/24 04:12:00;;;;;;;19.92;12.23;;;;;;;4.08;76.27;103348.06;5047984;28;20027;-79
2022/01/24 04:17:05;;;;;;;19.58;12.05;;;;;;;4.06;76.05;103350.59;5045282;28;20039;-79
2022/01/24 04:22:12;;;;;;;20.90;12.95;;;;;;;4.04;75.66;103352.22;5049460;28;20053;-79
2022/01/24 04:24:38;;;;;;;20.97;12.73;;;;;;;4.04;75.81;103343.59;5050196;28;20107;-79
2022/01/24 04:27:04;;;;;;;22.80;13.45;;;;;;;4.02;76.08;103337.50;5051057;28;20029;-78
2022/01/24 04:29:30;;;;;;;20.63;13.00;;;;;;;4.00;76.40;103342.59;5049268;28;20045;-79
2022/01/24 04:31:55;;;;;;;21.80;13.00;;;;;;;4.01;75.03;103341.78;5051502;28;20052;-79
2022/01/24 04:34:21;;;;;;;21.92;12.60;;;;;;;4.01;75.60;103346.09;5051321;28;20424;-79
2022/01/24 04:36:46;;;;;;;20.60;12.27;;;;;;;4.00;75.63;103345.19;5051822;28;20048;-79
2022/01/24 04:39:11;;;;;;;21.48;12.63;;;;;;;4.01;76.04;103346.09;5051020;28;20040;-79
2022/01/24 04:41:40;;;;;;;21.10;12.55;;;;;;;4.01;75.43;103352.09;5047934;28;20432;-79
2022/01/24 04:44:28;;;;;;;25.53;12.63;;;;;;;4.04;75.81;103346.19;5049824;28;20029;-79
2022/01/24 04:54:40;;;;;;;21.98;13.48;;;;;;;3.99;76.10;103348.56;5051053;28;20045;-79
2022/01/24 04:57:08;;;;;;;21.92;13.25;;;;;;;3.99;75.89;103348.56;5050457;28;20075;-79
2022/01/24 04:59:35;;;;;;;21.25;13.05;;;;;;;3.98;75.47;103346.81;5050821;28;20032;-79
2022/01/24 05:02:01;;;;;;;22.05;13.23;;;;;;;3.97;75.58;103350.19;5045965;28;20029;-79
2022/01/24 05:04:26;;;;;;;20.60;12.13;;;;;;;3.98;75.84;103351.09;5047736;28;21390;-79
2022/01/24 05:06:52;;;;;;;20.63;12.48;;;;;;;3.97;76.07;103360.50;5050371;28;20037;-79
2022/01/24 05:09:18;;;;;;;19.63;12.18;;;;;;;3.97;75.97;103355.34;5048413;28;20021;-79
2022/01/24 05:12:27;;;;;;;19.60;11.85;;;;;;;3.97;76.10;103368.22;5045620;28;20484;-79
2022/01/24 05:25:48;;;;;;;19.37;11.27;;;;;;;3.98;77.19;103353.69;5005596;28;20049;-79
2022/01/24 05:28:13;;;;;;;19.27;11.83;;;;;;;3.95;76.75;103351.81;5039245;28;20047;-79
2022/01/24 05:30:38;;;;;;;20.00;11.90;;;;;;;3.95;76.77;103346.69;5046701;28;20091;-79
2022/01/24 05:33:04;;;;;;;20.20;11.85;;;;;;;3.95;76.57;103347.56;5049809;28;20033;-79
2022/01/24 05:35:29;;;;;;;21.00;11.77;;;;;;;3.94;76.85;103344.91;5046585;28;20057;-79
2022/01/24 05:37:54;;;;;;;19.83;12.03;;;;;;;3.95;77.17;103350.16;5049645;28;20029;-79
2022/01/24 05:40:20;;;;;;;20.87;11.50;;;;;;;3.93;76.20;103348.31;5046585;28;20060;-79
2022/01/24 05:42:45;;;;;;;21.55;12.70;;;;;;;3.91;76.61;103345.69;5052770;28;20028;-78
2022/01/24 05:45:10;;;;;;;22.90;12.60;;;;;;;3.91;76.46;103344.81;5047957;28;20035;-79
2022/01/24 05:47:36;;;;;;;20.07;11.87;;;;;;;3.91;76.79;103353.41;5048033;28;20033;-79
2022/01/24 05:50:03;;;;;;;21.40;12.67;;;;;;;3.88;74.97;103354.97;5048117;28;20033;-79
2022/01/24 05:52:28;;;;;;;20.10;12.53;;;;;;;3.88;74.45;103349.81;5049453;28;20029;-79
2022/01/24 05:54:53;;;;;;;20.07;12.57;;;;;;;3.87;74.82;103358.38;5047311;28;20037;-79
2022/01/24 05:57:18;;;;;;;21.23;12.90;;;;;;;3.88;75.33;103354.97;5047521;28;20116;-78
2022/01/24 05:59:44;;;;;;;22.75;13.15;;;;;;;3.89;75.57;103361.88;5049104;28;20052;-79
2022/01/24 06:02:09;;;;;;;22.45;13.30;;;;;;;3.88;76.10;103352.41;5046654;28;20056;-79
2022/01/24 06:04:34;;;;;;;21.13;12.50;;;;;;;3.89;76.40;103351.59;5048364;28;20032;-79
2022/01/24 06:07:00;;;;;;;23.53;13.10;;;;;;;3.88;75.54;103362.69;5050164;28;20025;-79
2022/01/24 06:09:26;;;;;;;22.97;13.37;;;;;;;3.86;75.73;103357.47;5049269;28;20400;-79
2022/01/24 06:11:51;;;;;;;19.98;11.60;;;;;;;3.87;76.09;103358.38;5047251;28;20464;-79
2022/01/24 06:14:17;;;;;;;22.45;13.13;;;;;;;3.85;75.81;103353.13;5050315;28;20361;-79
2022/01/24 06:16:42;;;;;;;20.60;12.40;;;;;;;3.85;76.05;103349.69;5048181;28;20036;-79
2022/01/24 06:19:07;;;;;;;21.80;12.37;;;;;;;3.84;76.48;103353.06;5047207;28;20041;-79
2022/01/24 06:21:33;;;;;;;23.13;12.60;;;;;;;3.83;76.85;103359.03;5046752;28;20506;-79
2022/01/24 06:23:58;;;;;;;24.60;12.40;;;;;;;3.83;76.54;103364.19;5046490;28;20029;-79
2022/01/24 06:26:23;;;;;;;23.23;12.98;;;;;;;3.82;76.96;103359.84;5048001;28;20025;-79
2022/01/24 06:28:49;;;;;;;21.47;12.63;;;;;;;3.82;76.78;103367.56;5047097;28;20040;-79
2022/01/24 06:31:14;;;;;;;23.77;13.37;;;;;;;3.82;76.32;103359.84;5044713;28;20036;-79
2022/01/24 06:33:40;;;;;;;25.40;14.20;;;;;;;3.79;76.59;103361.47;5047750;28;20043;-79
2022/01/24 06:36:05;;;;;;;23.53;13.37;;;;;;;3.76;76.43;103350.16;5047753;28;20483;-79
2022/01/24 06:38:31;;;;;;;23.47;13.83;;;;;;;3.75;76.27;103353.56;5047490;28;20041;-79
2022/01/24 06:40:56;;;;;;;24.37;14.40;;;;;;;3.73;75.85;103356.09;5042440;28;20499;-78
2022/01/24 06:43:21;;;;;;;25.75;14.15;;;;;;;3.70;75.27;103345.66;5047635;28;20035;-79
2022/01/24 06:45:47;;;;;;;28.05;15.93;;;;;;;3.67;75.04;103355.81;5043643;28;20040;-78
2022/01/24 06:48:12;;;;;;;27.67;15.83;;;;;;;3.64;74.77;103355.66;5047036;28;20120;-79
2022/01/24 06:50:38;;;;;;;27.83;15.43;;;;;;;3.62;75.55;103353.03;5049537;28;20032;-78
2022/01/24 06:53:03;;;;;;;27.87;16.07;;;;;;;3.62;74.91;103358.19;5047932;28;20075;-79
2022/01/24 06:55:28;;;;;;;28.27;16.00;;;;;;;3.61;75.58;103366.72;5048042;28;20017;-79
2022/01/24 06:57:54;;;;;;;26.57;15.37;;;;;;;3.63;76.21;103364.19;5047991;28;20424;-79
2022/01/24 07:00:26;;;;;;;28.23;17.00;;;;;;;3.62;75.43;103363.34;5045533;28;20040;-78
2022/01/24 07:02:53;;;;;;;30.23;17.50;;;;;;;3.61;74.67;103363.25;5049530;28;20036;-78
2022/01/24 07:05:18;;;;;;;30.20;16.88;;;;;;;3.61;75.06;103365.81;5048133;28;20082;-78
2022/01/24 07:07:44;;;;;;;31.50;17.77;;;;;;;3.61;75.27;103363.25;5050464;28;20185;-78
2022/01/24 07:10:09;;;;;;;30.43;16.90;;;;;;;3.59;75.29;103364.88;5050214;28;20032;-79
2022/01/24 07:12:34;;;;;;;29.40;17.60;;;;;;;3.59;75.15;103372.59;5048328;28;20025;-78
2022/01/24 07:15:06;;;;;;;31.40;17.33;;;;;;;3.58;75.27;103370.84;5047742;28;20028;-79
2022/01/24 07:17:56;;;;;;;28.50;16.90;;;;;;;3.61;75.70;103370.97;5047716;28;20047;-79
2022/01/24 07:20:17;;;;;;;31.60;17.63;;;;;;;3.62;75.42;103359.84;5047948;28;20049;-79
2022/01/24 07:22:43;;;;;;;29.98;17.30;;;;;;;3.62;75.54;103370.16;5048196;28;20033;-78
2022/01/24 07:25:08;;;;;;;35.17;18.50;;;;;;;3.61;74.68;103370.97;5046281;28;20124;-78
2022/01/24 07:27:34;;;;;;;32.40;18.47;;;;;;;3.60;75.43;103374.34;5049624;28;20028;-78
2022/01/24 07:30:01;;;;;;;33.53;18.47;;;;;;;3.63;76.08;103379.63;5050219;28;20013;-79
2022/01/24 07:32:27;;;;;;;32.43;18.47;;;;;;;3.64;75.36;103377.16;5049519;28;20025;-78
2022/01/24 07:34:54;;;;;;;32.20;18.57;;;;;;;3.64;75.81;103373.69;5050725;28;20033;-78
2022/01/24 07:37:21;;;;;;;32.63;18.97;;;;;;;3.63;75.31;103374.50;5048447;28;20494;-78
2022/01/24 07:39:47;;;;;;;31.43;18.40;;;;;;;3.62;75.80;103368.47;5049345;28;20415;-78
2022/01/24 07:42:17;;;;;;;33.57;19.30;;;;;;;3.63;75.20;103369.34;5050626;28;20035;-78
2022/01/24 07:44:44;;;;;;;33.50;18.60;;;;;;;3.64;74.87;103377.16;5060546;28;20024;-78
2022/01/24 07:47:10;;;;;;;35.23;19.07;;;;;;;3.64;74.97;103376.25;5054838;28;20028;-78
2022/01/24 07:49:36;;;;;;;33.50;18.73;;;;;;;3.67;75.98;103385.81;5049963;28;20052;-79
2022/01/24 07:52:02;;;;;;;36.00;18.53;;;;;;;3.67;75.64;103391.84;5050617;28;20056;-78
2022/01/24 07:54:27;;;;;;;32.70;18.20;;;;;;;3.69;75.76;103395.38;5053363;28;20031;-79
2022/01/24 07:56:52;;;;;;;31.47;17.50;;;;;;;3.70;76.04;103404.84;5053325;28;20024;-79
2022/01/24 07:59:19;;;;;;;34.67;19.53;;;;;;;3.70;76.04;103407.44;5053304;28;20043;-78
2022/01/24 08:01:45;;;;;;;34.47;18.87;;;;;;;3.71;74.46;103409.19;5053766;28;20013;-78
2022/01/24 08:04:10;;;;;;;34.40;18.53;;;;;;;3.72;75.64;103413.53;5054200;28;20024;-78
2022/01/24 08:06:36;;;;;;;30.47;17.33;;;;;;;3.73;76.09;103407.56;5052930;28;20029;-78
2022/01/24 08:09:01;;;;;;;33.87;18.60;;;;;;;3.72;75.04;103415.22;5054020;28;20468;-78
2022/01/24 08:11:26;;;;;;;33.92;17.83;;;;;;;3.72;75.37;103410.97;5051360;28;20029;-78
2022/01/24 08:13:54;;;;;;;29.73;16.20;;;;;;;3.72;76.24;103405.81;5058537;28;20472;-78
2022/01/24 08:16:20;;;;;;;27.77;15.40;;;;;;;3.72;76.66;103410.97;5052479;28;20539;-78
2022/01/24 08:18:50;;;;;;;26.02;15.02;;;;;;;3.71;77.01;103414.34;5053984;28;20139;-78
2022/01/24 08:21:15;;;;;;;26.43;15.17;;;;;;;3.71;77.34;103416.91;5052936;28;20530;-78
2022/01/24 08:23:40;;;;;;;25.92;14.88;;;;;;;3.71;77.29;103413.44;5053308;28;20029;-78
2022/01/24 08:26:06;;;;;;;29.63;16.20;;;;;;;3.72;77.25;103415.22;5053238;28;20025;-78
2022/01/24 08:28:31;;;;;;;28.93;16.47;;;;;;;3.72;77.13;103413.53;5055104;28;20405;-79
2022/01/24 08:30:56;;;;;;;27.00;15.20;;;;;;;3.74;77.28;103411.00;5054067;28;20044;-78
2022/01/24 08:33:22;;;;;;;25.08;14.02;;;;;;;3.73;77.25;103407.56;5053273;28;20388;-79
2022/01/24 08:35:48;;;;;;;25.63;14.05;;;;;;;3.73;77.53;103405.00;5053552;28;20059;-78
2022/01/24 08:38:13;;;;;;;26.27;15.00;;;;;;;3.73;77.52;103402.41;5054612;28;20075;-79
2022/01/24 08:40:40;;;;;;;27.58;14.88;;;;;;;3.76;77.86;103404.25;5054534;28;20036;-78
2022/01/24 08:43:07;;;;;;;27.63;14.40;;;;;;;3.74;78.73;103409.34;5052827;28;20056;-78
2022/01/24 08:45:58;;;;;;;26.33;14.70;;;;;;;3.78;78.46;103418.06;5052958;28;20021;-79
2022/01/24 08:48:24;;;;;;;25.95;13.93;;;;;;;3.79;78.22;103420.69;5054549;28;20025;-79
2022/01/24 08:50:52;;;;;;;24.97;14.33;;;;;;;3.80;77.95;103416.44;5054100;28;20021;-79
2022/01/24 08:53:18;;;;;;;24.27;13.60;;;;;;;3.79;77.86;103412.97;5053335;28;20079;-78
2022/01/24 08:55:44;;;;;;;29.50;14.73;;;;;;;3.84;77.89;103409.72;5054273;28;20037;-78
2022/01/24 08:58:13;;;;;;;26.90;14.50;;;;;;;3.84;77.51;103409.72;5064047;28;20098;-79
2022/01/24 09:00:39;;;;;;;24.43;14.13;;;;;;;3.86;77.15;103408.09;5054770;28;20024;-79
2022/01/24 09:03:05;;;;;;;22.63;14.20;;;;;;;3.88;77.30;103412.50;5052778;28;20086;-79
2022/01/24 09:05:34;;;;;;;24.17;14.77;;;;;;;3.87;77.31;103407.28;5053679;28;20380;-79
2022/01/24 09:08:01;;;;;;;23.20;12.83;;;;;;;3.88;76.84;103402.19;5054109;28;20025;-79
2022/01/24 09:10:26;;;;;;;24.60;13.70;;;;;;;3.90;76.87;103413.44;5053823;28;20579;-78
2022/01/24 09:12:52;;;;;;;22.87;13.27;;;;;;;3.91;76.52;103416.91;5054075;28;20036;-79
2022/01/24 09:15:17;;;;;;;25.00;14.30;;;;;;;3.93;76.02;103420.41;5053939;28;20116;-79
2022/01/24 09:17:43;;;;;;;24.20;14.40;;;;;;;3.95;76.84;103418.78;5053825;28;20048;-78
2022/01/24 09:20:10;;;;;;;22.00;13.80;;;;;;;3.96;76.75;103425.72;5055115;28;20388;-79
2022/01/24 09:22:35;;;;;;;24.70;13.30;;;;;;;3.97;76.47;103412.03;5073815;28;20425;-79
2022/01/24 09:25:03;;;;;;;22.43;12.73;;;;;;;3.98;76.90;103413.78;5073684;28;20029;-78
2022/01/24 09:27:30;;;;;;;21.58;12.65;;;;;;;3.98;76.55;103413.78;5069515;28;20033;-79
2022/01/24 09:29:55;;;;;;;21.63;13.27;;;;;;;4.00;75.15;103409.56;5052521;28;20021;-79
2022/01/24 09:32:21;;;;;;;22.15;13.00;;;;;;;4.03;76.59;103420.03;5052783;28;20466;-78
2022/01/24 09:34:47;;;;;;;22.97;14.00;;;;;;;4.07;76.74;103418.44;5051112;28;20021;-79
2022/01/24 09:37:12;;;;;;;23.37;14.13;;;;;;;4.08;76.10;103415.06;5051279;28;20404;-78
2022/01/24 09:39:37;;;;;;;21.98;13.73;;;;;;;4.10;76.40;103410.84;5049370;28;20056;-79
2022/01/24 09:42:03;;;;;;;21.20;13.60;;;;;;;4.13;77.14;103417.81;5052460;28;20017;-79
2022/01/24 09:44:28;;;;;;;21.63;13.53;;;;;;;4.14;76.96;103411.84;5053248;28;20380;-79
2022/01/24 09:46:53;;;;;;;20.92;12.68;;;;;;;4.16;76.62;103418.84;5053361;28;20025;-79
2022/01/24 09:49:19;;;;;;;20.67;12.70;;;;;;;4.18;76.83;103421.50;5070983;28;20066;-79
2022/01/24 09:51:44;;;;;;;20.20;12.67;;;;;;;4.20;76.23;103414.72;5053048;28;20041;-79
2022/01/24 09:54:10;;;;;;;19.83;12.70;;;;;;;4.23;76.14;103417.41;5053036;28;20031;-78
2022/01/24 09:56:36;;;;;;;19.97;12.77;;;;;;;4.27;76.35;103416.72;5053032;28;20033;-79
2022/01/24 09:59:03;;;;;;;23.27;13.05;;;;;;;4.28;76.24;103410.75;5052973;28;20104;-79
2022/01/24 10:01:30;;;;;;;18.97;11.97;;;;;;;4.32;76.28;103409.19;5053246;28;20025;-78
2022/01/24 10:04:28;;;;;;;21.43;12.93;;;;;;;4.36;76.36;103411.06;5052974;28;20578;-78
2022/01/24 10:07:05;;;;;;;20.00;12.40;;;;;;;4.37;76.00;103416.31;5030068;28;20067;-78
2022/01/24 10:09:51;;;;;;;20.23;12.60;;;;;;;4.39;76.00;103406.94;5052777;28;20047;-79
2022/01/24 10:17:40;;;;;;;25.25;13.93;;;;;;;4.52;74.45;103402.28;5053348;28;20059;-78
2022/01/24 10:20:28;;;;;;;23.58;13.25;;;;;;;4.58;74.36;103406.81;5051011;28;20454;-79
2022/01/24 10:23:05;;;;;;;19.10;11.80;;;;;;;4.62;73.31;103404.41;5052536;28;20036;-79
2022/01/24 10:25:31;;;;;;;19.60;11.95;;;;;;;4.66;71.59;103405.44;5052443;28;20028;-79
2022/01/24 10:28:05;;;;;;;18.73;11.63;;;;;;;4.73;71.74;103407.41;5052498;28;20067;-79
2022/01/24 10:30:32;;;;;;;17.55;10.88;;;;;;;4.73;71.40;103402.25;5050988;28;20087;-79
2022/01/24 10:33:00;;;;;;;19.45;11.85;;;;;;;4.74;71.43;103409.19;5051402;28;20056;-79
2022/01/24 10:35:40;;;;;;;17.63;10.98;;;;;;;4.79;71.27;103406.78;5050594;28;20053;-79
2022/01/24 10:38:21;;;;;;;16.48;10.73;;;;;;;4.84;71.63;103392.38;5050816;28;20029;-78
2022/01/24 10:40:51;;;;;;;17.90;10.65;;;;;;;4.91;70.85;103391.81;5055536;28;20053;-78
2022/01/24 10:43:21;;;;;;;16.60;10.15;;;;;;;4.99;71.17;103390.41;5058538;28;20030;-78
2022/01/24 10:45:48;;;;;;;17.63;10.15;;;;;;;5.00;70.40;103384.41;5052547;28;20361;-79
2022/01/24 10:48:14;;;;;;;17.00;10.73;;;;;;;5.04;70.45;103387.13;5049276;28;20472;-78
2022/01/24 10:50:39;;;;;;;17.33;11.20;;;;;;;5.05;69.76;103386.28;5051287;28;20021;-78
2022/01/24 10:53:13;;;;;;;23.75;13.20;;;;;;;5.06;69.28;103386.34;5051928;28;20031;-79
2022/01/24 10:55:41;;;;;;;24.13;15.00;;;;;;;5.07;69.25;103387.25;5052089;28;20543;-78
2022/01/24 10:58:14;;;;;;;29.17;14.18;;;;;;;5.11;69.10;103386.53;5051802;28;20023;-79
2022/01/24 11:00:41;;;;;;;30.15;16.98;;;;;;;5.14;68.26;103384.06;5051839;28;20128;-78
2022/01/24 11:03:15;;;;;;;29.65;16.83;;;;;;;5.17;68.91;103389.34;5051787;28;20029;-79
2022/01/24 11:05:43;;;;;;;25.52;14.88;;;;;;;5.17;68.36;103373.84;5051818;28;20021;-78
2022/01/24 11:08:11;;;;;;;24.70;15.25;;;;;;;5.18;68.75;103375.63;5051832;28;20032;-78
2022/01/24 11:10:40;;;;;;;25.77;15.85;;;;;;;5.18;68.35;103375.63;5051152;28;20025;-79
2022/01/24 11:13:06;;;;;;;24.92;15.82;;;;;;;5.21;67.90;103375.75;5060294;28;20383;-79
2022/01/24 11:15:34;;;;;;;28.40;16.88;;;;;;;5.24;68.25;103373.28;5061731;28;20021;-79
2022/01/24 11:18:01;;;;;;;26.85;15.82;;;;;;;5.25;67.69;103367.28;5051108;28;20078;-80
2022/01/24 11:20:31;;;;;;;26.00;15.63;;;;;;;5.27;67.99;103377.66;5050913;28;20108;-79
2022/01/24 11:23:00;;;;;;;28.30;16.33;;;;;;;5.27;67.75;103368.25;5049667;28;20366;-78
2022/01/24 11:25:29;;;;;;;28.42;15.90;;;;;;;5.29;68.16;103368.28;5067234;28;20020;-78
2022/01/24 11:27:54;;;;;;;29.55;17.80;;;;;;;5.31;68.10;103361.47;5061403;28;20025;-79
2022/01/24 11:30:25;;;;;;;29.00;16.60;;;;;;;5.34;68.66;103360.69;5050785;28;20028;-78
2022/01/24 11:32:58;;;;;;;24.93;15.27;;;;;;;5.36;67.27;103364.22;5059257;28;20048;-78
2022/01/24 11:35:34;;;;;;;28.73;16.00;;;;;;;5.37;68.53;103361.72;5050740;28;20275;-79
2022/01/24 11:38:00;;;;;;;29.02;16.38;;;;;;;5.38;68.24;103365.16;5050714;28;20021;-79
2022/01/24 11:40:27;;;;;;;27.20;15.98;;;;;;;5.40;67.74;103371.25;5050226;28;20021;-79
2022/01/24 11:42:52;;;;;;;30.00;17.05;;;;;;;5.40;67.75;103376.44;5050107;28;20032;-79
2022/01/24 11:45:37;;;;;;;31.55;17.92;;;;;;;5.41;68.34;103376.47;5060859;28;20028;-79
2022/01/24 11:48:20;;;;;;;28.52;16.83;;;;;;;5.39;68.37;103375.53;5049672;28;20522;-78
2022/01/24 11:51:04;;;;;;;30.20;17.95;;;;;;;5.39;68.98;103367.78;5049739;28;20024;-78
2022/01/24 11:53:32;;;;;;;28.33;16.70;;;;;;;5.40;67.71;103368.69;5048618;28;20519;-78
2022/01/24 11:56:18;;;;;;;27.35;16.23;;;;;;;5.42;68.55;103359.28;5050519;28;20036;-79
2022/01/24 11:58:43;;;;;;;29.02;16.77;;;;;;;5.41;67.40;103348.06;5050258;28;20083;-78
2022/01/24 12:01:13;;;;;;;30.05;17.13;;;;;;;5.44;68.40;103347.31;5050353;28;20388;-78
2022/01/24 12:03:49;;;;;;;31.13;17.85;;;;;;;5.46;68.04;103345.69;5048784;28;20021;-78
2022/01/24 12:06:19;;;;;;;30.45;17.50;;;;;;;5.47;67.69;103350.00;5050980;28;20091;-78
2022/01/24 12:08:47;;;;;;;30.67;17.83;;;;;;;5.48;67.30;103344.00;5047690;28;20083;-78
2022/01/24 12:11:20;;;;;;;32.85;18.27;;;;;;;5.49;66.46;103345.75;5049879;28;20021;-79
2022/01/24 12:13:49;;;;;;;30.38;17.98;;;;;;;5.51;67.00;103346.69;5048865;28;20052;-79
2022/01/24 12:16:16;;;;;;;33.53;18.60;;;;;;;5.54;67.53;103351.97;5050279;28;20057;-81
2022/01/24 12:18:42;;;;;;;33.45;18.60;;;;;;;5.58;66.51;103345.22;5050803;28;20064;-79
2022/01/24 12:21:20;;;;;;;32.63;19.00;;;;;;;5.61;66.91;103350.50;5047671;28;20029;-78
2022/01/24 12:23:54;;;;;;;34.30;17.52;;;;;;;5.59;67.12;103355.63;5051746;28;20049;-78
2022/01/24 12:26:22;;;;;;;32.35;18.80;;;;;;;5.58;66.86;103348.69;5051050;28;20025;-78
2022/01/24 12:28:59;;;;;;;31.50;18.35;;;;;;;5.58;66.06;103353.84;5055547;28;20019;-79
2022/01/24 12:31:48;;;;;;;32.40;18.08;;;;;;;5.59;67.43;103347.88;5071260;28;20024;-78
2022/01/24 12:34:33;;;;;;;31.65;18.38;;;;;;;5.60;67.58;103341.00;5054695;28;20059;-79
2022/01/24 12:37:04;;;;;;;29.63;17.65;;;;;;;5.59;66.25;103340.13;5069686;28;20032;-79
2022/01/24 12:39:36;;;;;;;33.40;18.85;;;;;;;5.59;66.64;103326.31;5065337;28;20030;-78
2022/01/24 12:42:13;;;;;;;31.88;18.20;;;;;;;5.60;66.52;103323.81;5051980;28;20459;-78
2022/01/24 12:47:10;;;;;;;28.00;17.77;;;;;;;5.66;66.05;103319.66;5049781;28;20060;-78
2022/01/24 12:49:36;;;;;;;29.52;17.80;;;;;;;5.67;65.98;103316.25;5051957;28;20468;-78
2022/01/24 12:52:11;;;;;;;27.48;17.33;;;;;;;5.69;66.67;103314.59;5060354;28;20021;-79
2022/01/24 12:54:39;;;;;;;31.23;18.48;;;;;;;5.71;67.30;103305.22;5052733;28;20029;-78